sensor_id;sensor_type;location;lat;lon;timestamp;P1;durP1;ratioP1;P2;durP2;ratioP2
19863;SDS011;10094;48.820;9.226;2023-05-20T00:01:27;6.97;;;5.80;;
19863;SDS011;10094;48.820;9.226;2023-05-20T00:08:09;8.27;;;5.93;;
19863;SDS011;10094;48.820;9.226;2023-05-20T00:14:52;8.07;;;6.13;;
19863;SDS011;10094;48.820;9.226;2023-05-20T00:21:36;7.93;;;5.85;;
19863;SDS011;10094;48.820;9.226;2023-05-20T00:28:19;8.63;;;6.28;;
19863;SDS011;10094;48.820;9.226;2023-05-20T00:35:03;11.23;;;6.38;;
19863;SDS011;10094;48.820;9.226;2023-05-20T00:41:45;8.43;;;6.43;;
19863;SDS011;10094;48.820;9.226;2023-05-20T00:48:31;10.18;;;6.45;;
19863;SDS011;10094;48.820;9.226;2023-05-20T00:55:21;7.35;;;6.10;;
19863;SDS011;10094;48.820;9.226;2023-05-20T01:02:04;7.13;;;6.35;;
19863;SDS011;10094;48.820;9.226;2023-05-20T01:08:47;9.75;;;6.25;;
19863;SDS011;10094;48.820;9.226;2023-05-20T01:15:30;8.60;;;6.63;;
19863;SDS011;10094;48.820;9.226;2023-05-20T01:22:13;8.23;;;6.15;;
19863;SDS011;10094;48.820;9.226;2023-05-20T01:28:57;8.18;;;5.90;;
19863;SDS011;10094;48.820;9.226;2023-05-20T01:35:45;9.05;;;6.50;;
19863;SDS011;10094;48.820;9.226;2023-05-20T01:42:30;9.65;;;7.03;;
19863;SDS011;10094;48.820;9.226;2023-05-20T01:49:14;8.95;;;7.10;;
19863;SDS011;10094;48.820;9.226;2023-05-20T01:55:56;9.52;;;6.22;;
19863;SDS011;10094;48.820;9.226;2023-05-20T02:02:39;6.55;;;5.68;;
19863;SDS011;10094;48.820;9.226;2023-05-20T02:09:25;8.55;;;6.55;;
19863;SDS011;10094;48.820;9.226;2023-05-20T02:16:07;6.88;;;5.80;;
19863;SDS011;10094;48.820;9.226;2023-05-20T02:22:49;8.38;;;6.45;;
19863;SDS011;10094;48.820;9.226;2023-05-20T02:29:32;8.45;;;6.57;;
19863;SDS011;10094;48.820;9.226;2023-05-20T02:36:14;7.88;;;5.40;;
19863;SDS011;10094;48.820;9.226;2023-05-20T02:42:58;7.28;;;6.55;;
19863;SDS011;10094;48.820;9.226;2023-05-20T02:49:42;7.68;;;5.90;;
19863;SDS011;10094;48.820;9.226;2023-05-20T02:56:24;7.05;;;5.40;;
19863;SDS011;10094;48.820;9.226;2023-05-20T03:03:08;10.05;;;6.70;;
19863;SDS011;10094;48.820;9.226;2023-05-20T03:09:51;9.65;;;6.47;;
19863;SDS011;10094;48.820;9.226;2023-05-20T03:16:33;8.75;;;6.22;;
19863;SDS011;10094;48.820;9.226;2023-05-20T03:23:16;7.70;;;6.60;;
19863;SDS011;10094;48.820;9.226;2023-05-20T03:30:00;8.32;;;6.00;;
19863;SDS011;10094;48.820;9.226;2023-05-20T03:36:43;6.93;;;6.18;;
19863;SDS011;10094;48.820;9.226;2023-05-20T03:43:26;8.10;;;5.97;;
19863;SDS011;10094;48.820;9.226;2023-05-20T03:50:09;8.05;;;5.93;;
19863;SDS011;10094;48.820;9.226;2023-05-20T03:56:53;12.82;;;6.97;;
19863;SDS011;10094;48.820;9.226;2023-05-20T04:03:35;6.65;;;5.88;;
19863;SDS011;10094;48.820;9.226;2023-05-20T04:10:18;6.70;;;6.05;;
19863;SDS011;10094;48.820;9.226;2023-05-20T04:17:05;8.55;;;5.38;;
19863;SDS011;10094;48.820;9.226;2023-05-20T04:23:49;7.82;;;5.45;;
19863;SDS011;10094;48.820;9.226;2023-05-20T04:30:31;5.85;;;5.18;;
19863;SDS011;10094;48.820;9.226;2023-05-20T04:37:14;5.97;;;5.38;;
19863;SDS011;10094;48.820;9.226;2023-05-20T04:43:57;7.50;;;5.35;;
19863;SDS011;10094;48.820;9.226;2023-05-20T04:50:41;11.57;;;5.82;;
19863;SDS011;10094;48.820;9.226;2023-05-20T04:57:23;6.45;;;5.28;;
19863;SDS011;10094;48.820;9.226;2023-05-20T05:04:06;5.50;;;4.75;;
19863;SDS011;10094;48.820;9.226;2023-05-20T05:10:49;6.72;;;4.65;;
19863;SDS011;10094;48.820;9.226;2023-05-20T05:17:32;6.22;;;4.95;;
19863;SDS011;10094;48.820;9.226;2023-05-20T05:24:15;4.55;;;4.15;;
19863;SDS011;10094;48.820;9.226;2023-05-20T05:30:58;4.38;;;3.90;;
19863;SDS011;10094;48.820;9.226;2023-05-20T05:37:40;6.07;;;4.38;;
19863;SDS011;10094;48.820;9.226;2023-05-20T05:44:23;5.05;;;4.22;;
19863;SDS011;10094;48.820;9.226;2023-05-20T05:51:06;5.53;;;4.15;;
19863;SDS011;10094;48.820;9.226;2023-05-20T05:57:50;5.43;;;4.13;;
19863;SDS011;10094;48.820;9.226;2023-05-20T06:04:32;4.88;;;4.13;;
19863;SDS011;10094;48.820;9.226;2023-05-20T06:11:15;5.18;;;4.30;;
19863;SDS011;10094;48.820;9.226;2023-05-20T06:17:57;6.38;;;4.25;;
19863;SDS011;10094;48.820;9.226;2023-05-20T06:24:41;5.75;;;4.13;;
19863;SDS011;10094;48.820;9.226;2023-05-20T06:31:23;4.43;;;3.97;;
19863;SDS011;10094;48.820;9.226;2023-05-20T06:38:06;7.22;;;4.70;;
19863;SDS011;10094;48.820;9.226;2023-05-20T06:44:49;4.78;;;4.30;;
19863;SDS011;10094;48.820;9.226;2023-05-20T06:51:45;4.78;;;4.35;;
19863;SDS011;10094;48.820;9.226;2023-05-20T06:58:28;4.97;;;4.00;;
19863;SDS011;10094;48.820;9.226;2023-05-20T07:05:12;6.88;;;4.35;;
19863;SDS011;10094;48.820;9.226;2023-05-20T07:11:54;4.82;;;4.32;;
19863;SDS011;10094;48.820;9.226;2023-05-20T07:18:37;4.78;;;4.38;;
19863;SDS011;10094;48.820;9.226;2023-05-20T07:25:19;4.60;;;4.20;;
19863;SDS011;10094;48.820;9.226;2023-05-20T07:32:03;6.03;;;4.72;;
19863;SDS011;10094;48.820;9.226;2023-05-20T07:38:47;4.28;;;3.88;;
19863;SDS011;10094;48.820;9.226;2023-05-20T07:45:43;5.75;;;4.70;;
19863;SDS011;10094;48.820;9.226;2023-05-20T07:52:26;5.50;;;4.90;;
19863;SDS011;10094;48.820;9.226;2023-05-20T07:59:08;5.00;;;4.15;;
19863;SDS011;10094;48.820;9.226;2023-05-20T08:05:56;5.63;;;4.65;;
19863;SDS011;10094;48.820;9.226;2023-05-20T08:12:39;5.03;;;4.63;;
19863;SDS011;10094;48.820;9.226;2023-05-20T08:19:22;5.03;;;4.57;;
19863;SDS011;10094;48.820;9.226;2023-05-20T08:26:05;5.43;;;4.75;;
19863;SDS011;10094;48.820;9.226;2023-05-20T08:32:49;5.40;;;4.90;;
19863;SDS011;10094;48.820;9.226;2023-05-20T08:39:32;5.30;;;4.60;;
19863;SDS011;10094;48.820;9.226;2023-05-20T08:46:15;5.90;;;5.30;;
19863;SDS011;10094;48.820;9.226;2023-05-20T08:53:00;5.25;;;4.75;;
19863;SDS011;10094;48.820;9.226;2023-05-20T08:59:43;5.50;;;4.97;;
19863;SDS011;10094;48.820;9.226;2023-05-20T09:06:27;5.95;;;4.82;;
19863;SDS011;10094;48.820;9.226;2023-05-20T09:13:10;5.55;;;5.10;;
19863;SDS011;10094;48.820;9.226;2023-05-20T09:19:53;7.05;;;4.55;;
19863;SDS011;10094;48.820;9.226;2023-05-20T09:26:35;5.75;;;4.90;;
19863;SDS011;10094;48.820;9.226;2023-05-20T09:33:17;4.88;;;4.40;;
19863;SDS011;10094;48.820;9.226;2023-05-20T09:40:02;4.85;;;4.45;;
19863;SDS011;10094;48.820;9.226;2023-05-20T09:46:49;4.97;;;4.22;;
19863;SDS011;10094;48.820;9.226;2023-05-20T09:53:34;5.30;;;4.80;;
19863;SDS011;10094;48.820;9.226;2023-05-20T10:00:17;4.63;;;4.20;;
19863;SDS011;10094;48.820;9.226;2023-05-20T10:07:14;6.13;;;5.10;;
19863;SDS011;10094;48.820;9.226;2023-05-20T10:14:13;4.97;;;4.57;;
19863;SDS011;10094;48.820;9.226;2023-05-20T10:21:14;4.35;;;4.03;;
19863;SDS011;10094;48.820;9.226;2023-05-20T10:28:06;4.85;;;4.35;;
19863;SDS011;10094;48.820;9.226;2023-05-20T10:34:49;4.43;;;4.03;;
19863;SDS011;10094;48.820;9.226;2023-05-20T10:41:32;5.05;;;3.95;;
19863;SDS011;10094;48.820;9.226;2023-05-20T10:48:18;4.75;;;4.35;;
19863;SDS011;10094;48.820;9.226;2023-05-20T10:55:04;4.53;;;3.92;;
19863;SDS011;10094;48.820;9.226;2023-05-20T11:01:48;4.43;;;4.03;;
19863;SDS011;10094;48.820;9.226;2023-05-20T11:08:31;4.88;;;4.45;;
19863;SDS011;10094;48.820;9.226;2023-05-20T11:15:13;5.30;;;4.80;;
19863;SDS011;10094;48.820;9.226;2023-05-20T11:21:56;4.70;;;4.05;;
19863;SDS011;10094;48.820;9.226;2023-05-20T11:28:38;4.90;;;4.40;;
19863;SDS011;10094;48.820;9.226;2023-05-20T11:35:22;6.35;;;5.47;;
19863;SDS011;10094;48.820;9.226;2023-05-20T11:42:05;4.57;;;4.15;;
19863;SDS011;10094;48.820;9.226;2023-05-20T11:48:52;4.45;;;4.05;;
19863;SDS011;10094;48.820;9.226;2023-05-20T11:55:44;4.78;;;4.28;;
19863;SDS011;10094;48.820;9.226;2023-05-20T12:02:34;5.18;;;4.60;;
19863;SDS011;10094;48.820;9.226;2023-05-20T12:09:17;4.63;;;4.15;;
19863;SDS011;10094;48.820;9.226;2023-05-20T12:16:00;4.93;;;4.05;;
19863;SDS011;10094;48.820;9.226;2023-05-20T12:22:43;4.68;;;3.80;;
19863;SDS011;10094;48.820;9.226;2023-05-20T12:29:26;4.65;;;4.22;;
19863;SDS011;10094;48.820;9.226;2023-05-20T12:36:08;5.15;;;4.10;;
19863;SDS011;10094;48.820;9.226;2023-05-20T12:42:51;4.43;;;4.03;;
19863;SDS011;10094;48.820;9.226;2023-05-20T12:49:33;4.75;;;4.28;;
19863;SDS011;10094;48.820;9.226;2023-05-20T12:56:16;5.40;;;4.32;;
19863;SDS011;10094;48.820;9.226;2023-05-20T13:02:59;5.15;;;4.35;;
19863;SDS011;10094;48.820;9.226;2023-05-20T13:09:43;5.43;;;4.40;;
19863;SDS011;10094;48.820;9.226;2023-05-20T13:16:25;3.78;;;3.47;;
19863;SDS011;10094;48.820;9.226;2023-05-20T13:23:08;4.35;;;3.47;;
19863;SDS011;10094;48.820;9.226;2023-05-20T13:29:50;5.03;;;4.40;;
19863;SDS011;10094;48.820;9.226;2023-05-20T13:36:33;4.25;;;3.85;;
19863;SDS011;10094;48.820;9.226;2023-05-20T13:43:15;6.72;;;3.67;;
19863;SDS011;10094;48.820;9.226;2023-05-20T13:49:57;6.30;;;3.67;;
19863;SDS011;10094;48.820;9.226;2023-05-20T13:56:43;3.83;;;3.47;;
19863;SDS011;10094;48.820;9.226;2023-05-20T14:03:26;3.65;;;3.35;;
19863;SDS011;10094;48.820;9.226;2023-05-20T14:10:08;4.38;;;3.22;;
19863;SDS011;10094;48.820;9.226;2023-05-20T14:16:52;5.95;;;3.90;;
19863;SDS011;10094;48.820;9.226;2023-05-20T14:23:35;4.43;;;3.65;;
19863;SDS011;10094;48.820;9.226;2023-05-20T14:30:17;4.00;;;3.60;;
19863;SDS011;10094;48.820;9.226;2023-05-20T14:36:59;3.67;;;3.20;;
19863;SDS011;10094;48.820;9.226;2023-05-20T14:43:48;3.70;;;3.40;;
19863;SDS011;10094;48.820;9.226;2023-05-20T14:50:30;4.05;;;3.35;;
19863;SDS011;10094;48.820;9.226;2023-05-20T14:57:12;3.88;;;3.58;;
19863;SDS011;10094;48.820;9.226;2023-05-20T15:03:56;3.90;;;3.60;;
19863;SDS011;10094;48.820;9.226;2023-05-20T15:10:39;3.53;;;3.22;;
19863;SDS011;10094;48.820;9.226;2023-05-20T15:17:22;4.43;;;3.90;;
19863;SDS011;10094;48.820;9.226;2023-05-20T15:24:04;4.00;;;3.30;;
19863;SDS011;10094;48.820;9.226;2023-05-20T15:30:50;3.80;;;3.50;;
19863;SDS011;10094;48.820;9.226;2023-05-20T15:37:34;4.75;;;4.25;;
19863;SDS011;10094;48.820;9.226;2023-05-20T15:44:17;5.07;;;4.57;;
19863;SDS011;10094;48.820;9.226;2023-05-20T15:50:59;4.35;;;4.00;;
19863;SDS011;10094;48.820;9.226;2023-05-20T15:57:42;5.15;;;3.97;;
19863;SDS011;10094;48.820;9.226;2023-05-20T16:04:24;5.72;;;4.03;;
19863;SDS011;10094;48.820;9.226;2023-05-20T16:11:07;6.38;;;4.15;;
19863;SDS011;10094;48.820;9.226;2023-05-20T16:17:50;6.40;;;3.88;;
19863;SDS011;10094;48.820;9.226;2023-05-20T16:24:33;6.63;;;3.83;;
19863;SDS011;10094;48.820;9.226;2023-05-20T16:31:15;3.50;;;3.17;;
19863;SDS011;10094;48.820;9.226;2023-05-20T16:37:58;5.88;;;4.35;;
19863;SDS011;10094;48.820;9.226;2023-05-20T16:44:41;5.45;;;4.15;;
19863;SDS011;10094;48.820;9.226;2023-05-20T16:51:23;4.50;;;3.85;;
19863;SDS011;10094;48.820;9.226;2023-05-20T16:58:06;5.28;;;4.15;;
19863;SDS011;10094;48.820;9.226;2023-05-20T17:04:49;5.68;;;5.18;;
19863;SDS011;10094;48.820;9.226;2023-05-20T17:11:32;5.95;;;5.20;;
19863;SDS011;10094;48.820;9.226;2023-05-20T17:18:14;7.53;;;6.15;;
19863;SDS011;10094;48.820;9.226;2023-05-20T17:24:57;7.00;;;6.30;;
19863;SDS011;10094;48.820;9.226;2023-05-20T17:31:39;8.73;;;6.60;;
19863;SDS011;10094;48.820;9.226;2023-05-20T17:38:22;7.38;;;6.30;;
19863;SDS011;10094;48.820;9.226;2023-05-20T17:45:07;8.80;;;7.05;;
19863;SDS011;10094;48.820;9.226;2023-05-20T17:51:50;8.93;;;7.03;;
19863;SDS011;10094;48.820;9.226;2023-05-20T17:58:32;8.52;;;7.38;;
19863;SDS011;10094;48.820;9.226;2023-05-20T18:05:15;10.27;;;7.80;;
19863;SDS011;10094;48.820;9.226;2023-05-20T18:12:00;9.75;;;7.75;;
19863;SDS011;10094;48.820;9.226;2023-05-20T18:18:42;7.32;;;6.63;;
19863;SDS011;10094;48.820;9.226;2023-05-20T18:25:25;10.18;;;7.45;;
19863;SDS011;10094;48.820;9.226;2023-05-20T18:32:07;8.05;;;7.00;;
19863;SDS011;10094;48.820;9.226;2023-05-20T18:38:50;8.27;;;7.47;;
19863;SDS011;10094;48.820;9.226;2023-05-20T18:45:32;8.75;;;7.85;;
19863;SDS011;10094;48.820;9.226;2023-05-20T18:52:15;9.18;;;7.90;;
19863;SDS011;10094;48.820;9.226;2023-05-20T18:59:00;10.38;;;7.85;;
19863;SDS011;10094;48.820;9.226;2023-05-20T19:05:42;9.73;;;7.70;;
19863;SDS011;10094;48.820;9.226;2023-05-20T19:12:25;8.77;;;8.00;;
19863;SDS011;10094;48.820;9.226;2023-05-20T19:19:08;10.48;;;8.23;;
19863;SDS011;10094;48.820;9.226;2023-05-20T19:25:50;9.55;;;8.57;;
19863;SDS011;10094;48.820;9.226;2023-05-20T19:32:33;9.40;;;8.35;;
19863;SDS011;10094;48.820;9.226;2023-05-20T19:39:15;12.88;;;9.88;;
19863;SDS011;10094;48.820;9.226;2023-05-20T19:45:58;11.52;;;9.10;;
19863;SDS011;10094;48.820;9.226;2023-05-20T19:52:40;9.88;;;8.88;;
19863;SDS011;10094;48.820;9.226;2023-05-20T19:59:23;12.00;;;9.55;;
19863;SDS011;10094;48.820;9.226;2023-05-20T20:06:05;10.10;;;9.07;;
19863;SDS011;10094;48.820;9.226;2023-05-20T20:12:48;13.50;;;9.50;;
19863;SDS011;10094;48.820;9.226;2023-05-20T20:19:31;14.02;;;10.15;;
19863;SDS011;10094;48.820;9.226;2023-05-20T20:26:14;11.27;;;10.10;;
19863;SDS011;10094;48.820;9.226;2023-05-20T20:32:57;11.48;;;10.32;;
19863;SDS011;10094;48.820;9.226;2023-05-20T20:39:39;15.10;;;10.55;;
19863;SDS011;10094;48.820;9.226;2023-05-20T20:46:22;13.00;;;11.70;;
19863;SDS011;10094;48.820;9.226;2023-05-20T20:53:04;13.52;;;11.93;;
19863;SDS011;10094;48.820;9.226;2023-05-20T20:59:47;14.23;;;12.15;;
19863;SDS011;10094;48.820;9.226;2023-05-20T21:06:32;12.43;;;11.18;;
19863;SDS011;10094;48.820;9.226;2023-05-20T21:13:15;13.48;;;11.60;;
19863;SDS011;10094;48.820;9.226;2023-05-20T21:19:58;13.10;;;11.55;;
19863;SDS011;10094;48.820;9.226;2023-05-20T21:26:40;13.38;;;12.02;;
19863;SDS011;10094;48.820;9.226;2023-05-20T21:33:23;13.38;;;11.95;;
19863;SDS011;10094;48.820;9.226;2023-05-20T21:40:06;13.80;;;12.23;;
19863;SDS011;10094;48.820;9.226;2023-05-20T21:46:48;15.13;;;13.32;;
19863;SDS011;10094;48.820;9.226;2023-05-20T21:53:31;13.00;;;11.65;;
19863;SDS011;10094;48.820;9.226;2023-05-20T22:00:13;16.27;;;12.15;;
19863;SDS011;10094;48.820;9.226;2023-05-20T22:07:01;13.85;;;12.45;;
19863;SDS011;10094;48.820;9.226;2023-05-20T22:13:47;13.05;;;11.65;;
19863;SDS011;10094;48.820;9.226;2023-05-20T22:20:29;14.20;;;11.60;;
19863;SDS011;10094;48.820;9.226;2023-05-20T22:27:14;13.93;;;11.40;;
19863;SDS011;10094;48.820;9.226;2023-05-20T22:33:56;14.00;;;12.55;;
19863;SDS011;10094;48.820;9.226;2023-05-20T22:40:39;15.18;;;11.98;;
19863;SDS011;10094;48.820;9.226;2023-05-20T22:47:21;16.15;;;12.40;;
19863;SDS011;10094;48.820;9.226;2023-05-20T22:54:03;13.38;;;12.02;;
19863;SDS011;10094;48.820;9.226;2023-05-20T23:00:47;14.82;;;13.23;;
19863;SDS011;10094;48.820;9.226;2023-05-20T23:07:30;13.98;;;12.48;;
19863;SDS011;10094;48.820;9.226;2023-05-20T23:14:13;14.27;;;12.85;;
19863;SDS011;10094;48.820;9.226;2023-05-20T23:20:55;13.60;;;12.20;;
19863;SDS011;10094;48.820;9.226;2023-05-20T23:27:37;15.48;;;13.13;;
19863;SDS011;10094;48.820;9.226;2023-05-20T23:34:20;14.35;;;12.85;;
19863;SDS011;10094;48.820;9.226;2023-05-20T23:41:02;16.15;;;14.13;;
19863;SDS011;10094;48.820;9.226;2023-05-20T23:47:45;17.92;;;13.25;;
19863;SDS011;10094;48.820;9.226;2023-05-20T23:54:27;18.00;;;14.85;;
